createdAt,value
2019-05-19T00:02:29.032Z,18.30
2019-05-19T00:04:59.109Z,11.68
2019-05-19T00:07:29.271Z,16.42
2019-05-19T00:09:59.371Z,14.03
2019-05-19T00:12:29.377Z,12.18
2019-05-19T00:14:59.503Z,12.98
2019-05-19T00:17:29.633Z,12.03
2019-05-19T00:19:59.846Z,11.18
2019-05-19T00:22:30.025Z,11.95
2019-05-19T00:25:00.356Z,12.00
2019-05-19T00:27:30.550Z,14.07
2019-05-19T00:30:00.599Z,11.90
2019-05-19T00:32:30.973Z,14.83
2019-05-19T00:35:00.988Z,12.63
2019-05-19T00:37:31.235Z,15.00
2019-05-19T00:40:01.234Z,12.43
2019-05-19T00:42:31.732Z,11.85
2019-05-19T00:45:21.131Z,16.10
2019-05-19T00:47:51.305Z,10.95
2019-05-19T00:50:21.482Z,11.48
2019-05-19T00:52:51.535Z,11.28
2019-05-19T00:55:21.787Z,12.45
2019-05-19T00:57:52.157Z,10.20
2019-05-19T01:00:22.538Z,14.60
2019-05-19T01:02:52.749Z,13.03
2019-05-19T01:05:22.940Z,12.37
2019-05-19T01:07:53.048Z,11.25
2019-05-19T01:10:23.278Z,14.23
2019-05-19T01:12:53.445Z,11.80
2019-05-19T01:15:23.568Z,11.75
2019-05-19T01:17:53.731Z,10.25
2019-05-19T01:20:23.729Z,13.50
2019-05-19T01:22:53.723Z,13.50
2019-05-19T01:25:23.884Z,12.75
2019-05-19T01:27:53.935Z,12.37
2019-05-19T01:30:24.144Z,14.07
2019-05-19T01:32:54.224Z,14.35
2019-05-19T01:35:24.184Z,16.80
2019-05-19T01:37:54.183Z,13.40
2019-05-19T01:40:24.176Z,12.73
2019-05-19T01:42:54.254Z,12.30
2019-05-19T01:45:26.544Z,10.78
2019-05-19T01:47:56.666Z,17.40
2019-05-19T01:50:28.429Z,12.85
2019-05-19T01:52:58.569Z,15.18
2019-05-19T01:55:28.842Z,19.25
2019-05-19T01:57:58.869Z,18.00
2019-05-19T02:00:29.027Z,14.53
2019-05-19T02:02:59.213Z,16.17
2019-05-19T02:05:29.221Z,13.38
2019-05-19T02:07:59.270Z,12.47
2019-05-19T02:10:29.275Z,14.00
2019-05-19T02:12:59.257Z,12.30
2019-05-19T02:15:29.351Z,14.47
2019-05-19T02:17:59.378Z,14.95
2019-05-19T02:20:33.119Z,13.22
2019-05-19T02:23:01.222Z,12.20
2019-05-19T02:25:31.183Z,15.70
2019-05-19T02:28:01.253Z,15.28
2019-05-19T02:30:31.556Z,13.40
2019-05-19T02:33:01.618Z,14.43
2019-05-19T02:35:31.745Z,14.65
2019-05-19T02:38:01.802Z,13.80
2019-05-19T02:40:33.595Z,15.43
2019-05-19T02:43:04.523Z,18.00
2019-05-19T02:45:46.766Z,13.95
2019-05-19T02:48:18.658Z,12.70
2019-05-19T02:50:52.661Z,15.75
2019-05-19T02:53:22.739Z,18.67
2019-05-19T02:55:54.346Z,18.42
2019-05-19T02:58:25.614Z,14.68
2019-05-19T03:00:55.617Z,15.72
2019-05-19T03:03:25.752Z,12.50
2019-05-19T03:05:56.017Z,17.02
2019-05-19T03:08:26.122Z,16.73
2019-05-19T03:10:56.168Z,15.72
2019-05-19T03:13:26.526Z,14.25
2019-05-19T03:16:08.972Z,14.03
2019-05-19T03:18:39.080Z,12.80
2019-05-19T03:21:11.430Z,13.05
2019-05-19T03:23:41.392Z,13.72
2019-05-19T03:26:11.590Z,11.73
2019-05-19T03:28:41.717Z,14.73
2019-05-19T03:31:30.799Z,13.32
2019-05-19T03:34:02.207Z,15.50
2019-05-19T03:36:32.426Z,15.78
2019-05-19T03:39:02.757Z,14.85
2019-05-19T03:41:32.902Z,17.98
2019-05-19T03:44:02.960Z,12.95
2019-05-19T03:46:32.990Z,14.68
2019-05-19T03:49:03.564Z,14.33
2019-05-19T03:51:33.675Z,16.95
2019-05-19T03:54:04.796Z,18.12
2019-05-19T03:56:35.817Z,14.15
2019-05-19T03:59:05.917Z,17.02
2019-05-19T04:01:35.925Z,17.95
2019-05-19T04:04:06.109Z,19.00
2019-05-19T04:06:36.140Z,14.55
2019-05-19T04:09:07.437Z,15.45
2019-05-19T04:11:37.448Z,15.43
2019-05-19T04:14:07.555Z,18.12
2019-05-19T04:16:37.615Z,21.77
2019-05-19T04:19:07.704Z,17.42
2019-05-19T04:21:48.077Z,18.42
2019-05-19T04:24:09.414Z,16.93
2019-05-19T04:26:39.470Z,19.17
2019-05-19T04:29:09.571Z,16.67
2019-05-19T04:31:39.555Z,16.40
2019-05-19T04:34:09.494Z,22.27
2019-05-19T04:36:39.549Z,16.60
2019-05-19T04:39:09.503Z,16.95
2019-05-19T04:41:40.414Z,16.75
2019-05-19T04:44:10.777Z,20.27
2019-05-19T04:46:40.849Z,16.42
2019-05-19T04:49:12.015Z,18.73
2019-05-19T04:51:42.201Z,18.45
2019-05-19T04:54:12.433Z,17.73
2019-05-19T04:56:42.534Z,18.07
2019-05-19T04:59:12.569Z,14.13
2019-05-19T05:01:42.590Z,18.23
2019-05-19T05:04:12.650Z,17.32
2019-05-19T05:06:42.978Z,17.50
2019-05-19T05:09:13.069Z,17.35
2019-05-19T05:11:43.208Z,15.00
2019-05-19T05:14:13.292Z,20.00
2019-05-19T05:16:43.958Z,18.37
2019-05-19T05:19:15.323Z,18.80
2019-05-19T05:21:45.360Z,17.65
2019-05-19T05:24:15.374Z,16.40
2019-05-19T05:26:45.503Z,22.73
2019-05-19T05:29:15.671Z,18.75
2019-05-19T05:31:45.739Z,19.30
2019-05-19T05:34:15.717Z,16.48
2019-05-19T05:36:45.879Z,19.82
2019-05-19T05:39:15.894Z,14.85
2019-05-19T05:41:45.933Z,19.10
2019-05-19T05:44:16.070Z,20.75
2019-05-19T05:46:46.300Z,15.50
2019-05-19T05:49:16.276Z,14.47
2019-05-19T05:51:46.522Z,17.37
2019-05-19T05:54:16.518Z,17.52
2019-05-19T05:56:46.564Z,16.93
2019-05-19T05:59:17.656Z,16.97
2019-05-19T06:01:48.802Z,14.07
2019-05-19T06:04:21.950Z,13.90
2019-05-19T06:06:51.957Z,14.87
2019-05-19T06:09:22.034Z,15.25
2019-05-19T06:11:52.117Z,16.37
2019-05-19T06:14:22.271Z,17.05
2019-05-19T06:16:52.877Z,14.95
2019-05-19T06:19:26.250Z,17.17
2019-05-19T06:21:56.467Z,16.27
2019-05-19T06:24:26.677Z,22.87
2019-05-19T06:26:56.834Z,14.10
2019-05-19T06:29:26.930Z,14.38
2019-05-19T06:32:01.349Z,16.05
2019-05-19T06:34:31.571Z,16.50
2019-05-19T06:37:02.913Z,12.40
2019-05-19T06:39:32.914Z,10.58
2019-05-19T06:42:03.070Z,11.73
2019-05-19T06:44:33.189Z,16.17
2019-05-19T06:47:03.601Z,10.18
2019-05-19T06:49:33.908Z,12.82
2019-05-19T06:52:04.224Z,10.72
2019-05-19T06:54:34.770Z,11.70
2019-05-19T06:57:11.360Z,11.93
2019-05-19T06:59:41.599Z,11.53
2019-05-19T07:02:11.722Z,12.50
2019-05-19T07:04:41.866Z,12.03
2019-05-19T07:07:13.721Z,14.15
2019-05-19T07:09:57.461Z,12.07
2019-05-19T07:12:15.827Z,12.53
2019-05-19T07:14:46.837Z,11.28
2019-05-19T07:17:16.985Z,12.20
2019-05-19T07:19:47.594Z,11.28
2019-05-19T07:22:17.722Z,11.33
2019-05-19T07:24:48.856Z,11.00
2019-05-19T07:27:19.011Z,11.50
2019-05-19T07:29:48.979Z,11.35
2019-05-19T07:32:19.075Z,12.43
2019-05-19T07:34:49.079Z,12.45
2019-05-19T07:37:19.062Z,11.12
2019-05-19T07:39:49.106Z,10.95
2019-05-19T07:42:19.118Z,9.75
2019-05-19T07:44:52.654Z,9.65
2019-05-19T07:47:22.837Z,7.65
2019-05-19T07:49:58.867Z,8.38
2019-05-19T07:52:28.953Z,13.05
2019-05-19T07:54:59.070Z,8.60
2019-05-19T07:57:29.183Z,10.63
2019-05-19T07:59:59.327Z,9.58
2019-05-19T08:02:37.200Z,11.78
2019-05-19T08:05:08.255Z,11.57
2019-05-19T08:07:43.899Z,9.43
2019-05-19T08:10:14.219Z,11.63
2019-05-19T08:12:44.204Z,9.43
2019-05-19T08:15:14.624Z,12.82
2019-05-19T08:17:58.077Z,10.38
2019-05-19T08:20:30.525Z,8.40
2019-05-19T08:23:05.433Z,10.50
2019-05-19T08:25:38.410Z,9.33
2019-05-19T08:28:19.739Z,10.53
2019-05-19T08:30:49.998Z,9.53
2019-05-19T08:33:25.289Z,9.20
2019-05-19T08:35:56.566Z,8.85
2019-05-19T08:38:32.875Z,8.30
2019-05-19T08:41:05.981Z,8.15
2019-05-19T08:43:53.256Z,9.35
2019-05-19T08:46:23.168Z,10.70
2019-05-19T08:49:00.474Z,7.75
2019-05-19T08:51:34.160Z,9.83
2019-05-19T08:54:15.184Z,8.48
2019-05-19T08:57:08.173Z,8.75
2019-05-19T08:59:51.641Z,8.15
2019-05-19T09:02:24.890Z,7.83
2019-05-19T09:05:18.037Z,12.35
2019-05-19T09:08:06.499Z,9.03
2019-05-19T09:10:37.018Z,11.63
2019-05-19T09:13:07.536Z,7.10
2019-05-19T09:23:18.736Z,7.03
2019-05-19T09:26:05.071Z,11.28
2019-05-19T09:28:34.494Z,11.48
2019-05-19T09:31:04.894Z,7.97
2019-05-19T09:33:35.317Z,10.75
2019-05-19T09:36:05.753Z,8.68
2019-05-19T09:38:36.231Z,10.80
2019-05-19T09:41:06.573Z,11.53
2019-05-19T09:43:36.635Z,8.78
2019-05-19T09:46:06.884Z,8.78
2019-05-19T09:48:36.944Z,11.95
2019-05-19T09:51:07.236Z,15.43
2019-05-19T09:53:37.252Z,7.50
2019-05-19T09:56:07.365Z,10.63
2019-05-19T09:58:37.474Z,6.85
2019-05-19T10:01:07.663Z,7.83
2019-05-19T10:03:37.702Z,10.45
2019-05-19T10:06:07.898Z,6.72
2019-05-19T10:08:44.795Z,9.70
2019-05-19T10:11:33.384Z,24.02
2019-05-19T10:14:03.562Z,9.13
2019-05-19T10:16:33.793Z,9.80
2019-05-19T10:19:03.845Z,12.80
2019-05-19T10:21:33.960Z,7.37
2019-05-19T10:24:04.179Z,9.53
2019-05-19T10:26:34.102Z,15.03
2019-05-19T10:29:04.211Z,16.95
2019-05-19T10:31:34.346Z,7.90
2019-05-19T10:34:04.532Z,15.10
2019-05-19T10:36:34.775Z,7.87
2019-05-19T10:39:06.361Z,8.85
2019-05-19T10:41:36.499Z,10.25
2019-05-19T10:44:06.677Z,8.33
2019-05-19T10:46:36.848Z,7.95
2019-05-19T10:49:07.184Z,9.20
2019-05-19T10:51:37.298Z,8.35
2019-05-19T10:54:07.452Z,11.00
2019-05-19T10:56:37.514Z,10.37
2019-05-19T10:59:07.770Z,13.35
2019-05-19T11:01:38.005Z,8.88
2019-05-19T11:04:08.302Z,10.72
2019-05-19T11:06:39.878Z,7.53
2019-05-19T11:09:10.253Z,9.40
2019-05-19T11:11:40.454Z,11.85
2019-05-19T11:14:10.593Z,8.68
2019-05-19T11:16:40.641Z,8.35
2019-05-19T11:19:11.283Z,7.42
2019-05-19T11:21:41.205Z,7.67
2019-05-19T11:24:12.418Z,7.22
2019-05-19T11:26:42.995Z,9.03
2019-05-19T11:29:13.412Z,10.63
2019-05-19T11:31:43.365Z,7.65
2019-05-19T11:34:13.482Z,6.80
2019-05-19T11:36:43.513Z,7.40
2019-05-19T11:39:13.794Z,7.72
2019-05-19T11:41:43.956Z,9.28
2019-05-19T11:44:13.987Z,5.60
2019-05-19T11:46:44.168Z,10.10
2019-05-19T11:49:14.103Z,7.97
2019-05-19T11:51:46.338Z,6.65
2019-05-19T11:54:16.423Z,7.20
2019-05-19T11:56:46.859Z,5.80
2019-05-19T11:59:17.095Z,11.30
2019-05-19T12:01:47.218Z,5.67
2019-05-19T12:04:17.334Z,13.83
2019-05-19T12:06:47.442Z,12.63
2019-05-19T12:09:17.595Z,11.35
2019-05-19T12:11:47.682Z,5.47
2019-05-19T12:14:17.784Z,7.33
2019-05-19T12:16:48.005Z,6.62
2019-05-19T12:19:18.100Z,8.25
2019-05-19T12:21:48.244Z,5.03
2019-05-19T12:24:18.255Z,7.00
2019-05-19T12:26:48.443Z,5.85
2019-05-19T12:29:18.670Z,8.65
2019-05-19T12:31:50.128Z,6.30
2019-05-19T12:34:20.270Z,7.30
2019-05-19T12:36:50.325Z,10.45
2019-05-19T12:39:20.609Z,7.90
2019-05-19T12:41:50.672Z,5.55
2019-05-19T12:44:20.895Z,5.92
2019-05-19T12:46:51.119Z,6.15
2019-05-19T12:49:21.087Z,6.10
2019-05-19T12:51:51.034Z,6.22
2019-05-19T12:54:21.226Z,7.55
2019-05-19T12:56:51.398Z,9.93
2019-05-19T12:59:21.509Z,9.50
2019-05-19T13:01:51.694Z,8.63
2019-05-19T13:04:21.820Z,20.25
2019-05-19T13:06:52.075Z,8.60
2019-05-19T13:09:22.210Z,8.58
2019-05-19T13:11:52.778Z,9.18
2019-05-19T13:14:23.576Z,8.65
2019-05-19T13:16:53.692Z,10.03
2019-05-19T13:19:23.942Z,7.37
2019-05-19T13:21:54.105Z,7.70
2019-05-19T13:24:24.276Z,12.80
2019-05-19T13:26:56.817Z,8.05
2019-05-19T13:29:26.167Z,9.65
2019-05-19T13:31:56.257Z,6.62
2019-05-19T13:34:26.317Z,9.58
2019-05-19T13:36:56.649Z,9.88
2019-05-19T13:39:26.744Z,6.22
2019-05-19T13:41:57.014Z,8.85
2019-05-19T13:44:27.185Z,9.00
2019-05-19T13:46:57.479Z,14.60
2019-05-19T13:49:27.783Z,7.00
2019-05-19T13:51:58.009Z,6.67
2019-05-19T13:54:28.156Z,7.97
2019-05-19T13:57:11.355Z,5.83
2019-05-19T13:59:30.078Z,7.28
2019-05-19T14:02:00.294Z,10.48
2019-05-19T14:04:30.445Z,9.93
2019-05-19T14:07:01.780Z,5.97
2019-05-19T14:09:31.839Z,7.00
2019-05-19T14:12:01.872Z,8.75
2019-05-19T14:14:31.939Z,6.53
2019-05-19T14:17:01.870Z,8.35
2019-05-19T14:19:31.963Z,5.85
2019-05-19T14:22:02.169Z,5.70
2019-05-19T14:24:32.258Z,4.92
2019-05-19T14:27:02.455Z,5.70
2019-05-19T14:29:32.633Z,8.08
2019-05-19T14:32:02.797Z,5.47
2019-05-19T14:34:32.814Z,7.47
2019-05-19T14:37:03.039Z,6.80
2019-05-19T14:39:33.350Z,4.78
2019-05-19T14:42:07.497Z,6.58
2019-05-19T14:44:37.606Z,6.47
2019-05-19T14:47:07.661Z,6.20
2019-05-19T14:49:37.915Z,5.47
2019-05-19T14:52:08.118Z,5.58
2019-05-19T14:54:38.252Z,5.15
2019-05-19T14:57:08.273Z,7.42
2019-05-19T14:59:38.322Z,8.08
2019-05-19T15:02:08.415Z,5.45
2019-05-19T15:04:38.572Z,5.90
2019-05-19T15:07:08.735Z,8.28
2019-05-19T15:09:40.203Z,7.03
2019-05-19T15:12:10.217Z,6.40
2019-05-19T15:14:40.403Z,7.75
2019-05-19T15:17:10.526Z,6.12
2019-05-19T15:19:40.690Z,9.28
2019-05-19T15:22:10.761Z,8.25
2019-05-19T15:24:40.824Z,10.45
2019-05-19T15:27:11.039Z,8.10
2019-05-19T15:29:41.099Z,7.42
2019-05-19T15:32:11.208Z,9.95
2019-05-19T15:34:52.884Z,5.20
2019-05-19T15:37:23.078Z,9.00
2019-05-19T15:39:53.206Z,6.42
2019-05-19T15:42:23.214Z,11.38
2019-05-19T15:44:53.348Z,6.20
2019-05-19T15:47:26.640Z,8.43
2019-05-19T15:49:57.065Z,10.80
2019-05-19T15:52:27.440Z,6.80
2019-05-19T15:54:57.579Z,9.70
2019-05-19T15:57:28.738Z,9.15
2019-05-19T15:59:59.071Z,7.12
2019-05-19T16:02:29.178Z,7.37
2019-05-19T16:04:59.299Z,7.35
2019-05-19T16:07:29.415Z,7.70
2019-05-19T16:09:59.485Z,9.30
2019-05-19T16:12:29.814Z,8.70
2019-05-19T16:15:00.183Z,5.85
2019-05-19T16:17:30.249Z,8.95
2019-05-19T16:20:00.318Z,10.60
2019-05-19T16:22:30.293Z,5.12
2019-05-19T16:25:00.498Z,5.28
2019-05-19T16:27:31.722Z,5.47
2019-05-19T16:30:01.997Z,5.00
2019-05-19T16:32:32.372Z,6.40
2019-05-19T16:35:02.556Z,5.72
2019-05-19T16:37:32.911Z,6.08
2019-05-19T16:40:03.002Z,7.20
2019-05-19T16:42:34.350Z,5.90
2019-05-19T16:45:05.319Z,8.08
2019-05-19T16:47:36.543Z,6.62
2019-05-19T16:50:07.129Z,7.40
2019-05-19T16:52:37.395Z,6.15
2019-05-19T16:55:26.875Z,10.18
2019-05-19T16:57:57.278Z,7.95
2019-05-19T17:00:28.756Z,7.55
2019-05-19T17:02:59.128Z,8.00
2019-05-19T17:05:31.242Z,8.40
2019-05-19T17:08:02.292Z,5.50
2019-05-19T17:10:32.636Z,6.47
2019-05-19T17:13:02.749Z,7.10
2019-05-19T17:15:32.892Z,8.88
2019-05-19T17:18:03.858Z,6.10
2019-05-19T17:20:34.038Z,7.70
2019-05-19T17:23:04.321Z,9.33
2019-05-19T17:25:34.603Z,9.48
2019-05-19T17:28:04.836Z,9.28
2019-05-19T17:30:34.974Z,9.28
2019-05-19T17:33:05.094Z,7.37
2019-05-19T17:35:36.969Z,10.08
2019-05-19T17:38:11.014Z,6.12
2019-05-19T17:40:41.237Z,6.90
2019-05-19T17:43:11.391Z,8.18
2019-05-19T17:45:41.649Z,9.85
2019-05-19T17:48:25.739Z,9.55
2019-05-19T17:50:44.476Z,13.75
2019-05-19T17:53:14.579Z,12.20
2019-05-19T17:55:46.433Z,8.63
2019-05-19T17:58:16.535Z,9.13
2019-05-19T18:00:46.759Z,8.75
2019-05-19T18:03:16.839Z,11.38
2019-05-19T18:05:46.977Z,7.35
2019-05-19T18:08:17.262Z,10.93
2019-05-19T18:10:47.423Z,8.15
2019-05-19T18:13:17.696Z,11.65
2019-05-19T18:15:47.717Z,12.20
2019-05-19T18:18:17.793Z,17.45
2019-05-19T18:20:47.820Z,11.70
2019-05-19T18:23:17.965Z,13.28
2019-05-19T18:25:48.234Z,19.50
2019-05-19T18:28:18.543Z,12.75
2019-05-19T18:30:49.995Z,11.97
2019-05-19T18:33:20.275Z,17.90
2019-05-19T18:35:50.314Z,11.60
2019-05-19T18:38:20.428Z,9.15
2019-05-19T18:40:50.571Z,12.23
2019-05-19T18:43:20.678Z,9.48
2019-05-19T18:45:50.735Z,11.28
2019-05-19T18:48:27.379Z,7.72
2019-05-19T18:50:57.665Z,16.23
2019-05-19T18:53:27.804Z,11.20
2019-05-19T18:55:57.982Z,8.95
2019-05-19T18:58:28.657Z,8.63
2019-05-19T19:00:58.832Z,12.13
2019-05-19T19:03:29.602Z,14.65
2019-05-19T19:06:00.234Z,16.57
2019-05-19T19:08:30.416Z,20.62
2019-05-19T19:11:00.655Z,23.67
2019-05-19T19:13:31.018Z,28.52
2019-05-19T19:16:07.042Z,43.48
2019-05-19T19:18:37.240Z,33.58
2019-05-19T19:21:07.416Z,40.10
2019-05-19T19:23:37.611Z,34.92
2019-05-19T19:26:08.339Z,32.25
2019-05-19T19:28:38.450Z,39.85
2019-05-19T19:31:08.552Z,42.03
2019-05-19T19:33:39.130Z,28.98
2019-05-19T19:36:09.321Z,28.87
2019-05-19T19:38:39.613Z,36.00
2019-05-19T19:41:15.420Z,41.92
2019-05-19T19:43:46.594Z,47.33
2019-05-19T19:46:17.775Z,58.75
2019-05-19T19:48:48.108Z,54.83
2019-05-19T19:51:18.071Z,68.52
2019-05-19T19:53:48.214Z,65.60
2019-05-19T19:56:19.523Z,60.00
2019-05-19T19:58:49.697Z,56.65
2019-05-19T20:01:20.180Z,52.00
2019-05-19T20:03:52.566Z,33.45
2019-05-19T20:06:24.022Z,29.67
2019-05-19T20:08:54.302Z,25.17
2019-05-19T20:11:28.082Z,22.40
2019-05-19T20:13:58.697Z,22.62
2019-05-19T20:16:29.842Z,27.93
2019-05-19T20:18:59.977Z,22.55
2019-05-19T20:21:30.176Z,19.27
2019-05-19T20:24:02.701Z,16.60
2019-05-19T20:26:32.859Z,17.98
2019-05-19T20:29:03.970Z,19.95
2019-05-19T20:31:33.980Z,16.95
2019-05-19T20:34:04.204Z,14.95
2019-05-19T20:36:34.557Z,13.28
2019-05-19T20:39:05.987Z,14.20
2019-05-19T20:41:36.348Z,18.23
2019-05-19T20:44:06.510Z,13.58
2019-05-19T20:46:37.270Z,15.20
2019-05-19T20:49:07.557Z,12.82
2019-05-19T20:51:37.776Z,12.80
2019-05-19T20:54:07.917Z,13.80
2019-05-19T20:56:38.037Z,13.85
2019-05-19T20:59:08.341Z,15.48
2019-05-19T21:01:38.551Z,17.67
